createdAt,value
2017-07-31T00:00:46.098Z,18.40
2017-07-31T00:03:14.247Z,18.40
2017-07-31T00:05:42.522Z,18.40
2017-07-31T00:08:10.658Z,18.40
2017-07-31T00:10:38.795Z,18.40
2017-07-31T00:13:06.954Z,18.40
2017-07-31T00:15:35.090Z,18.40
2017-07-31T00:18:03.250Z,18.40
2017-07-31T00:20:31.379Z,18.40
2017-07-31T00:23:00.478Z,18.40
2017-07-31T00:25:28.623Z,18.40
2017-07-31T00:27:56.763Z,18.40
2017-07-31T00:30:24.937Z,18.50
2017-07-31T00:32:53.119Z,18.50
2017-07-31T00:35:21.399Z,18.50
2017-07-31T00:37:49.535Z,18.50
2017-07-31T00:40:18.449Z,18.50
2017-07-31T00:42:46.623Z,18.50
2017-07-31T00:45:14.758Z,18.50
2017-07-31T00:47:43.696Z,18.50
2017-07-31T00:50:11.825Z,18.40
2017-07-31T00:52:39.999Z,18.50
2017-07-31T00:55:08.908Z,18.50
2017-07-31T00:57:37.038Z,18.50
2017-07-31T01:00:05.223Z,18.50
2017-07-31T01:02:34.135Z,18.50
2017-07-31T01:05:02.411Z,18.50
2017-07-31T01:07:30.552Z,18.50
2017-07-31T01:09:59.466Z,18.50
2017-07-31T01:12:27.616Z,18.50
2017-07-31T01:14:56.539Z,18.50
2017-07-31T01:17:24.709Z,18.50
2017-07-31T01:19:52.849Z,18.50
2017-07-31T01:22:21.017Z,18.40
2017-07-31T01:24:49.155Z,18.40
2017-07-31T01:27:17.313Z,18.40
2017-07-31T01:29:45.445Z,18.40
2017-07-31T01:32:14.374Z,18.40
2017-07-31T01:34:42.508Z,18.40
2017-07-31T01:37:11.405Z,18.30
2017-07-31T01:39:39.611Z,18.30
2017-07-31T01:42:07.755Z,18.20
2017-07-31T01:44:36.040Z,18.20
2017-07-31T01:47:04.165Z,18.20
2017-07-31T01:49:32.290Z,18.10
2017-07-31T01:52:00.441Z,18.10
2017-07-31T01:54:28.959Z,18.00
2017-07-31T01:56:57.152Z,18.00
2017-07-31T01:59:25.292Z,18.00
2017-07-31T02:01:53.439Z,18.00
2017-07-31T02:04:21.622Z,18.00
2017-07-31T02:06:49.811Z,17.90
2017-07-31T02:09:17.970Z,17.90
2017-07-31T02:11:46.115Z,17.90
2017-07-31T02:14:14.267Z,17.80
2017-07-31T02:16:42.454Z,17.90
2017-07-31T02:19:10.584Z,17.80
2017-07-31T02:21:38.769Z,17.80
2017-07-31T02:24:06.902Z,17.80
2017-07-31T02:26:35.064Z,17.80
2017-07-31T02:29:03.752Z,17.80
2017-07-31T02:31:31.897Z,17.80
2017-07-31T02:34:00.062Z,17.80
2017-07-31T02:36:28.199Z,17.70
2017-07-31T02:38:56.451Z,17.70
2017-07-31T02:41:24.595Z,17.70
2017-07-31T02:43:52.724Z,17.70
2017-07-31T02:46:20.893Z,17.70
2017-07-31T02:48:49.039Z,17.70
2017-07-31T02:51:17.217Z,17.60
2017-07-31T02:53:45.360Z,17.60
2017-07-31T02:56:13.486Z,17.60
2017-07-31T02:58:41.650Z,17.60
2017-07-31T03:01:09.781Z,17.60
2017-07-31T03:03:37.955Z,17.60
2017-07-31T03:06:06.095Z,17.60
2017-07-31T03:08:35.120Z,17.60
2017-07-31T03:11:03.267Z,17.50
2017-07-31T03:13:32.178Z,17.50
2017-07-31T03:16:00.351Z,17.60
2017-07-31T03:18:28.495Z,17.60
2017-07-31T03:20:57.438Z,17.50
2017-07-31T03:23:25.590Z,17.50
2017-07-31T03:25:53.747Z,17.50
2017-07-31T03:28:21.894Z,17.50
2017-07-31T03:30:50.832Z,17.50
2017-07-31T03:33:18.979Z,17.50
2017-07-31T03:35:47.139Z,17.50
2017-07-31T03:38:15.297Z,17.50
2017-07-31T03:40:43.435Z,17.50
2017-07-31T03:43:11.620Z,17.50
2017-07-31T03:45:39.765Z,17.50
2017-07-31T03:48:07.897Z,17.50
2017-07-31T03:50:36.830Z,17.50
2017-07-31T03:53:04.966Z,17.50
2017-07-31T03:55:33.132Z,17.50
2017-07-31T03:58:01.270Z,17.50
2017-07-31T04:00:29.421Z,17.50
2017-07-31T04:02:57.594Z,17.50
2017-07-31T04:05:25.725Z,17.50
2017-07-31T04:07:53.906Z,17.50
2017-07-31T04:10:22.048Z,17.50
2017-07-31T04:12:50.940Z,17.60
2017-07-31T04:15:19.883Z,17.60
2017-07-31T04:17:48.045Z,17.60
2017-07-31T04:20:16.211Z,17.60
2017-07-31T04:22:44.355Z,17.60
2017-07-31T04:25:12.579Z,17.60
2017-07-31T04:27:40.763Z,17.60
2017-07-31T04:30:08.975Z,17.60
2017-07-31T04:32:37.134Z,17.60
2017-07-31T04:35:06.039Z,17.60
2017-07-31T04:37:34.230Z,17.60
2017-07-31T04:40:02.380Z,17.70
2017-07-31T04:42:31.443Z,17.70
2017-07-31T04:44:59.604Z,17.70
2017-07-31T04:47:27.761Z,17.70
2017-07-31T04:49:55.931Z,17.80
2017-07-31T04:52:24.079Z,17.80
2017-07-31T04:54:52.367Z,17.90
2017-07-31T04:57:20.504Z,18.00
2017-07-31T04:59:49.445Z,18.10
2017-07-31T05:02:17.610Z,18.10
2017-07-31T05:04:45.737Z,18.10
2017-07-31T05:07:13.893Z,18.10
2017-07-31T05:09:42.793Z,18.20
2017-07-31T05:12:10.962Z,18.20
2017-07-31T05:14:39.088Z,18.30
2017-07-31T05:17:07.358Z,18.30
2017-07-31T05:19:35.482Z,18.40
2017-07-31T05:22:04.375Z,18.60
2017-07-31T05:24:32.544Z,18.60
2017-07-31T05:27:00.704Z,18.80
2017-07-31T05:29:29.641Z,19.00
2017-07-31T05:31:57.771Z,19.00
2017-07-31T05:34:25.905Z,19.20
2017-07-31T05:36:54.083Z,19.30
2017-07-31T05:39:22.217Z,19.50
2017-07-31T05:41:50.394Z,19.60
2017-07-31T05:44:18.561Z,19.80
2017-07-31T05:46:46.891Z,20.10
2017-07-31T05:49:15.833Z,20.60
2017-07-31T05:51:43.977Z,20.50
2017-07-31T05:54:12.147Z,20.90
2017-07-31T05:56:40.285Z,21.10
2017-07-31T05:59:08.442Z,21.30
2017-07-31T06:01:36.570Z,21.50
2017-07-31T06:04:04.729Z,21.70
2017-07-31T06:06:32.868Z,21.70
2017-07-31T06:09:01.147Z,21.70
2017-07-31T06:11:29.273Z,21.70
2017-07-31T06:13:57.401Z,21.70
2017-07-31T06:16:25.558Z,21.70
2017-07-31T06:18:53.707Z,21.90
2017-07-31T06:21:21.868Z,22.00
2017-07-31T06:23:49.997Z,22.00
2017-07-31T06:26:18.936Z,22.20
2017-07-31T06:28:47.061Z,22.20
2017-07-31T06:31:15.184Z,22.20
2017-07-31T06:33:43.351Z,22.20
2017-07-31T06:36:11.498Z,22.20
2017-07-31T06:38:39.765Z,22.20
2017-07-31T06:41:07.900Z,22.20
2017-07-31T06:43:36.029Z,22.20
2017-07-31T06:46:04.194Z,22.20
2017-07-31T06:48:32.343Z,22.30
2017-07-31T06:51:01.224Z,22.40
2017-07-31T06:53:30.129Z,22.80
2017-07-31T06:55:59.817Z,22.80
2017-07-31T06:58:28.720Z,22.90
2017-07-31T07:00:56.865Z,22.90
2017-07-31T07:03:25.798Z,23.50
2017-07-31T07:05:53.938Z,23.50
2017-07-31T07:08:22.882Z,23.90
2017-07-31T07:10:51.024Z,23.90
2017-07-31T07:13:19.195Z,24.00
2017-07-31T07:15:47.326Z,24.10
2017-07-31T07:18:15.936Z,24.30
2017-07-31T07:20:44.080Z,24.40
2017-07-31T07:23:12.218Z,24.50
2017-07-31T07:25:40.385Z,24.50
2017-07-31T07:28:08.530Z,24.80
2017-07-31T07:30:36.690Z,25.20
2017-07-31T07:33:04.916Z,25.60
2017-07-31T07:35:33.101Z,26.00
2017-07-31T07:38:01.245Z,26.20
2017-07-31T07:40:29.391Z,26.50
2017-07-31T07:42:57.553Z,26.70
2017-07-31T07:45:25.694Z,26.90
2017-07-31T07:47:53.879Z,27.00
2017-07-31T07:50:22.827Z,27.10
2017-07-31T07:52:50.965Z,27.00
2017-07-31T07:55:19.136Z,27.20
2017-07-31T07:57:47.278Z,27.20
2017-07-31T08:00:15.429Z,27.50
2017-07-31T08:02:43.557Z,27.80
2017-07-31T08:05:11.749Z,28.10
2017-07-31T08:07:39.882Z,28.10
2017-07-31T08:10:08.939Z,28.60
2017-07-31T08:12:37.089Z,28.50
2017-07-31T08:15:05.234Z,28.70
2017-07-31T08:17:33.404Z,28.80
2017-07-31T08:20:01.525Z,28.90
2017-07-31T08:22:29.784Z,29.00
2017-07-31T08:24:57.928Z,29.00
2017-07-31T08:27:26.058Z,28.90
2017-07-31T08:29:54.228Z,28.80
2017-07-31T08:32:22.358Z,28.80
2017-07-31T08:34:50.547Z,28.90
2017-07-31T08:37:18.694Z,28.90
2017-07-31T08:39:46.834Z,29.00
2017-07-31T08:42:15.002Z,29.10
2017-07-31T08:44:43.919Z,29.60
2017-07-31T08:47:12.195Z,29.60
2017-07-31T08:49:40.326Z,29.70
2017-07-31T08:52:09.221Z,29.70
2017-07-31T08:54:37.400Z,29.70
2017-07-31T08:57:05.574Z,29.60
2017-07-31T08:59:34.530Z,29.30
2017-07-31T09:02:02.663Z,29.30
2017-07-31T09:04:30.806Z,29.20
2017-07-31T09:06:59.739Z,29.00
2017-07-31T09:09:27.869Z,28.90
2017-07-31T09:11:56.033Z,28.90
2017-07-31T09:14:24.926Z,29.50
2017-07-31T09:16:53.960Z,29.90
2017-07-31T09:19:22.102Z,29.90
2017-07-31T09:21:50.237Z,30.40
2017-07-31T09:24:18.413Z,30.80
2017-07-31T09:26:46.538Z,31.20
2017-07-31T09:29:14.705Z,31.40
2017-07-31T09:31:42.862Z,31.60
2017-07-31T09:34:11.029Z,31.80
2017-07-31T09:36:39.162Z,31.90
2017-07-31T09:39:07.337Z,32.10
2017-07-31T09:41:35.641Z,32.20
2017-07-31T09:44:03.784Z,32.30
2017-07-31T09:46:31.950Z,32.30
2017-07-31T09:49:00.099Z,32.40
2017-07-31T09:51:28.254Z,32.50
2017-07-31T09:53:56.382Z,32.60
2017-07-31T09:56:25.322Z,32.80
2017-07-31T09:58:53.470Z,32.80
2017-07-31T10:01:21.614Z,32.80
2017-07-31T10:03:50.556Z,32.80
2017-07-31T10:06:19.669Z,32.80
2017-07-31T10:08:47.829Z,32.80
2017-07-31T10:11:15.970Z,32.90
2017-07-31T10:13:44.239Z,32.90
2017-07-31T10:16:12.384Z,32.90
2017-07-31T10:18:40.517Z,32.90
2017-07-31T10:21:08.692Z,32.90
2017-07-31T10:23:36.828Z,32.90
2017-07-31T10:26:05.017Z,32.90
2017-07-31T10:28:33.176Z,32.90
2017-07-31T10:31:01.349Z,32.80
2017-07-31T10:33:29.496Z,32.60
2017-07-31T10:35:59.088Z,32.60
2017-07-31T10:38:27.255Z,32.60
2017-07-31T10:40:55.394Z,32.50
2017-07-31T10:43:23.550Z,32.40
2017-07-31T10:45:51.691Z,32.20
2017-07-31T10:48:19.823Z,32.10
2017-07-31T10:50:47.982Z,32.00
2017-07-31T10:53:16.110Z,32.00
2017-07-31T10:55:44.286Z,31.90
2017-07-31T10:58:12.420Z,31.80
2017-07-31T11:00:40.611Z,31.80
2017-07-31T11:03:09.542Z,31.80
2017-07-31T11:05:37.684Z,31.80
2017-07-31T11:08:06.627Z,31.60
2017-07-31T11:10:34.763Z,31.60
2017-07-31T11:13:02.960Z,31.50
2017-07-31T11:15:31.103Z,31.50
2017-07-31T11:17:59.240Z,31.50
2017-07-31T11:20:27.397Z,31.50
2017-07-31T11:22:55.548Z,31.40
2017-07-31T11:25:23.723Z,31.40
2017-07-31T11:27:51.852Z,31.30
2017-07-31T11:30:20.146Z,31.20
2017-07-31T11:32:48.276Z,31.10
2017-07-31T11:35:16.410Z,31.00
2017-07-31T11:37:44.579Z,30.90
2017-07-31T11:40:12.724Z,30.80
2017-07-31T11:42:40.915Z,30.70
2017-07-31T11:45:09.073Z,30.60
2017-07-31T11:47:37.240Z,30.40
2017-07-31T11:50:05.379Z,30.20
2017-07-31T11:52:34.290Z,30.10
2017-07-31T11:55:02.466Z,30.10
2017-07-31T11:57:30.606Z,30.10
2017-07-31T11:59:58.781Z,30.10
2017-07-31T12:02:26.910Z,30.10
2017-07-31T12:04:55.085Z,30.10
2017-07-31T12:07:23.222Z,30.10
2017-07-31T12:09:51.383Z,29.90
2017-07-31T12:12:19.558Z,29.80
2017-07-31T12:14:48.459Z,29.70
2017-07-31T12:17:16.624Z,29.60
2017-07-31T12:19:44.778Z,29.60
2017-07-31T12:22:13.712Z,29.30
2017-07-31T12:24:41.857Z,29.30
2017-07-31T12:27:10.018Z,29.20
2017-07-31T12:29:38.923Z,29.20
2017-07-31T12:32:07.086Z,29.10
2017-07-31T12:34:35.213Z,29.10
2017-07-31T12:37:03.352Z,29.10
2017-07-31T12:39:31.520Z,29.10
2017-07-31T12:41:59.646Z,29.10
2017-07-31T12:44:27.819Z,29.10
2017-07-31T12:46:56.727Z,29.10
2017-07-31T12:49:24.917Z,29.10
2017-07-31T12:51:53.050Z,29.10
2017-07-31T12:54:21.227Z,29.20
2017-07-31T12:56:49.453Z,29.20
2017-07-31T12:59:17.596Z,29.20
2017-07-31T13:01:45.778Z,29.20
2017-07-31T13:04:13.909Z,29.20
2017-07-31T13:06:42.064Z,29.20
2017-07-31T13:09:10.267Z,29.20
2017-07-31T13:11:38.417Z,29.20
2017-07-31T13:14:06.585Z,29.20
2017-07-31T13:16:34.731Z,29.20
2017-07-31T13:19:02.906Z,29.20
2017-07-31T13:21:31.102Z,29.20
2017-07-31T13:23:59.446Z,29.20
2017-07-31T13:26:27.581Z,29.20
2017-07-31T13:28:56.470Z,29.20
2017-07-31T13:31:25.394Z,29.20
2017-07-31T13:33:53.529Z,29.10
2017-07-31T13:36:21.737Z,29.20
2017-07-31T13:38:49.890Z,29.20
2017-07-31T13:41:18.064Z,29.20
2017-07-31T13:43:46.212Z,29.10
2017-07-31T13:46:14.375Z,29.10
2017-07-31T13:48:43.279Z,29.10
2017-07-31T13:51:11.471Z,29.10
2017-07-31T13:53:39.602Z,29.10
2017-07-31T13:56:07.781Z,29.10
2017-07-31T13:58:36.688Z,29.10
2017-07-31T14:01:04.857Z,29.10
2017-07-31T14:03:33.799Z,29.10
2017-07-31T14:06:01.941Z,29.10
2017-07-31T14:08:30.199Z,29.10
2017-07-31T14:10:58.322Z,29.10
2017-07-31T14:13:26.459Z,29.10
2017-07-31T14:15:54.630Z,29.10
2017-07-31T14:18:22.791Z,29.10
2017-07-31T14:20:50.966Z,29.10
2017-07-31T14:23:19.114Z,29.10
2017-07-31T14:25:48.043Z,29.10
2017-07-31T14:28:16.173Z,29.00
2017-07-31T14:30:45.107Z,29.10
2017-07-31T14:33:13.250Z,29.10
2017-07-31T14:35:41.394Z,29.10
2017-07-31T14:38:10.338Z,29.20
2017-07-31T14:40:38.484Z,29.10
2017-07-31T14:43:06.683Z,29.20
2017-07-31T14:45:34.822Z,29.20
2017-07-31T14:48:03.745Z,29.20
2017-07-31T14:50:31.896Z,29.20
2017-07-31T14:53:00.167Z,29.20
2017-07-31T14:55:29.274Z,29.30
2017-07-31T14:57:57.418Z,29.30
2017-07-31T15:00:26.348Z,29.20
2017-07-31T15:02:55.245Z,29.20
2017-07-31T15:05:23.467Z,29.20
2017-07-31T15:07:51.623Z,29.20
2017-07-31T15:10:19.764Z,29.20
2017-07-31T15:12:47.951Z,29.20
2017-07-31T15:15:16.093Z,29.20
2017-07-31T15:17:44.353Z,29.10
2017-07-31T15:20:12.500Z,29.20
2017-07-31T15:22:40.648Z,29.20
2017-07-31T15:25:08.825Z,29.20
2017-07-31T15:27:37.742Z,29.20
2017-07-31T15:30:05.913Z,29.20
2017-07-31T15:32:34.059Z,29.20
2017-07-31T15:35:02.199Z,29.10
2017-07-31T15:37:30.367Z,29.10
2017-07-31T15:39:58.519Z,29.00
2017-07-31T15:42:26.703Z,29.00
2017-07-31T15:44:54.853Z,29.00
2017-07-31T15:47:23.023Z,29.00
2017-07-31T15:49:51.166Z,29.00
2017-07-31T15:52:20.097Z,29.00
2017-07-31T15:54:48.239Z,28.90
2017-07-31T15:57:17.278Z,29.00
2017-07-31T15:59:45.436Z,28.90
2017-07-31T16:02:13.571Z,28.90
2017-07-31T16:04:41.732Z,28.90
2017-07-31T16:07:10.643Z,29.00
2017-07-31T16:09:38.924Z,28.90
2017-07-31T16:12:07.068Z,29.00
2017-07-31T16:14:35.201Z,29.00
2017-07-31T16:17:03.366Z,29.00
2017-07-31T16:19:31.511Z,28.90
2017-07-31T16:21:59.677Z,28.90
2017-07-31T16:24:27.873Z,28.90
2017-07-31T16:26:56.151Z,28.90
2017-07-31T16:29:24.308Z,28.90
2017-07-31T16:31:52.444Z,28.90
2017-07-31T16:34:20.618Z,28.90
2017-07-31T16:36:49.527Z,28.90
2017-07-31T16:39:26.586Z,28.90
2017-07-31T16:42:01.555Z,28.90
2017-07-31T16:44:45.559Z,28.90
2017-07-31T16:47:26.356Z,28.80
2017-07-31T16:49:54.546Z,28.80
2017-07-31T16:52:22.687Z,28.80
2017-07-31T16:54:51.114Z,28.80
2017-07-31T16:57:19.533Z,28.80
2017-07-31T16:59:48.471Z,28.70
2017-07-31T17:02:16.642Z,28.70
2017-07-31T17:04:44.810Z,28.70
2017-07-31T17:07:12.984Z,28.70
2017-07-31T17:09:41.127Z,28.70
2017-07-31T17:12:09.291Z,28.60
2017-07-31T17:14:38.209Z,28.50
2017-07-31T17:17:06.396Z,28.50
2017-07-31T17:19:34.533Z,28.40
2017-07-31T17:22:02.706Z,28.40
2017-07-31T17:24:30.846Z,28.30
2017-07-31T17:26:59.755Z,28.20
2017-07-31T17:29:28.694Z,28.20
2017-07-31T17:31:56.835Z,28.10
2017-07-31T17:34:25.091Z,28.10
2017-07-31T17:36:54.003Z,28.00
2017-07-31T17:39:23.136Z,28.00
2017-07-31T17:41:51.334Z,28.00
2017-07-31T17:44:19.519Z,28.00
2017-07-31T17:46:47.667Z,28.00
2017-07-31T17:49:15.817Z,28.00
2017-07-31T17:51:43.983Z,28.00
2017-07-31T17:54:12.125Z,28.00
2017-07-31T17:56:40.396Z,27.90
2017-07-31T17:59:08.531Z,27.90
2017-07-31T18:01:36.660Z,27.90
2017-07-31T18:04:04.834Z,27.90
2017-07-31T18:06:32.971Z,27.80
2017-07-31T18:09:01.243Z,27.80
2017-07-31T18:11:29.392Z,27.80
2017-07-31T18:13:57.535Z,27.70
2017-07-31T18:16:25.713Z,27.70
2017-07-31T18:18:53.837Z,27.70
2017-07-31T18:21:21.994Z,27.70
2017-07-31T18:23:50.900Z,27.60
2017-07-31T18:26:19.096Z,27.60
2017-07-31T18:28:47.238Z,27.60
2017-07-31T18:31:15.411Z,27.50
2017-07-31T18:33:43.572Z,27.50
2017-07-31T18:36:12.478Z,27.30
2017-07-31T18:38:40.654Z,27.30
2017-07-31T18:41:08.791Z,27.30
2017-07-31T18:43:36.964Z,27.20
2017-07-31T18:46:05.097Z,27.10
2017-07-31T18:48:33.294Z,27.00
2017-07-31T18:51:01.436Z,26.90
2017-07-31T18:53:29.574Z,26.80
2017-07-31T18:55:57.752Z,26.60
2017-07-31T18:58:25.904Z,26.60
2017-07-31T19:00:54.845Z,26.40
2017-07-31T19:03:22.992Z,26.40
2017-07-31T19:05:51.126Z,26.30
2017-07-31T19:08:19.471Z,26.20
2017-07-31T19:10:47.606Z,26.20
2017-07-31T19:13:15.799Z,26.10
2017-07-31T19:15:43.945Z,26.10
2017-07-31T19:18:12.136Z,26.10
2017-07-31T19:20:40.275Z,26.10
2017-07-31T19:23:08.442Z,26.00
2017-07-31T19:25:36.625Z,26.00
2017-07-31T19:28:04.779Z,25.90
2017-07-31T19:30:33.767Z,25.70
2017-07-31T19:33:01.938Z,25.70
2017-07-31T19:35:30.115Z,25.60
2017-07-31T19:37:59.256Z,25.40
2017-07-31T19:40:27.398Z,25.40
2017-07-31T19:42:55.564Z,25.30
2017-07-31T19:45:23.729Z,25.20
2017-07-31T19:47:52.897Z,25.10
2017-07-31T19:50:21.033Z,25.00
2017-07-31T19:52:49.209Z,25.00
2017-07-31T19:55:17.346Z,24.90
2017-07-31T19:57:46.256Z,24.90
2017-07-31T20:00:14.442Z,24.80
2017-07-31T20:02:42.573Z,24.90
2017-07-31T20:05:11.534Z,24.80
2017-07-31T20:07:39.678Z,24.70
2017-07-31T20:10:08.007Z,24.80
2017-07-31T20:12:36.959Z,24.70
2017-07-31T20:15:05.086Z,24.70
2017-07-31T20:17:33.246Z,24.70
2017-07-31T20:20:01.397Z,24.70
2017-07-31T20:22:29.538Z,24.60
2017-07-31T20:24:57.712Z,24.60
2017-07-31T20:27:25.850Z,24.60
2017-07-31T20:29:54.006Z,24.50
2017-07-31T20:32:22.930Z,24.40
2017-07-31T20:34:51.199Z,24.40
2017-07-31T20:37:19.337Z,24.40
2017-07-31T20:39:48.238Z,24.40
2017-07-31T20:42:16.410Z,24.40
2017-07-31T20:44:44.541Z,24.40
2017-07-31T20:47:13.526Z,24.40
2017-07-31T20:49:41.649Z,24.40
2017-07-31T20:52:09.794Z,24.40
2017-07-31T20:54:38.783Z,24.50
2017-07-31T20:57:07.700Z,24.50
2017-07-31T20:59:35.971Z,24.50
2017-07-31T21:02:04.115Z,24.60
2017-07-31T21:04:32.253Z,24.60
2017-07-31T21:07:00.421Z,24.50
2017-07-31T21:09:28.554Z,24.50
2017-07-31T21:11:56.722Z,24.50
2017-07-31T21:14:24.863Z,24.40
2017-07-31T21:16:53.054Z,24.40
2017-07-31T21:19:21.958Z,24.30
2017-07-31T21:21:50.103Z,24.30
2017-07-31T21:24:18.256Z,24.20
2017-07-31T21:26:46.415Z,24.20
2017-07-31T21:29:14.583Z,24.10
2017-07-31T21:31:42.713Z,24.10
2017-07-31T21:34:10.884Z,24.00
2017-07-31T21:36:39.096Z,23.90
2017-07-31T21:39:07.275Z,23.90
2017-07-31T21:41:35.414Z,23.80
2017-07-31T21:44:03.566Z,23.80
2017-07-31T21:46:32.513Z,23.60
2017-07-31T21:49:00.655Z,23.60
2017-07-31T21:51:28.829Z,23.50
2017-07-31T21:53:56.956Z,23.50
2017-07-31T21:56:25.899Z,23.30
2017-07-31T21:58:54.027Z,23.30
2017-07-31T22:01:22.183Z,23.20
2017-07-31T22:03:50.352Z,23.20
2017-07-31T22:06:19.467Z,23.10
2017-07-31T22:08:48.384Z,22.90
2017-07-31T22:11:16.523Z,22.90
2017-07-31T22:13:45.571Z,22.70
2017-07-31T22:16:13.729Z,22.70
2017-07-31T22:18:41.871Z,22.70
2017-07-31T22:21:16.417Z,22.50
2017-07-31T22:23:44.559Z,22.50
2017-07-31T22:26:13.483Z,22.40
2017-07-31T22:28:41.622Z,22.40
2017-07-31T22:31:10.810Z,22.30
2017-07-31T22:33:38.976Z,22.30
2017-07-31T22:36:07.878Z,22.20
2017-07-31T22:38:36.053Z,22.20
2017-07-31T22:41:04.207Z,22.10
2017-07-31T22:43:32.367Z,22.10
2017-07-31T22:46:00.533Z,22.00
2017-07-31T22:48:28.674Z,22.00
2017-07-31T22:50:56.851Z,22.00
2017-07-31T22:53:24.990Z,21.90
2017-07-31T22:55:53.160Z,21.90
2017-07-31T22:58:21.512Z,21.80
2017-07-31T23:00:50.415Z,21.70
2017-07-31T23:03:19.368Z,21.60
2017-07-31T23:05:47.493Z,21.60
2017-07-31T23:08:15.649Z,21.60
2017-07-31T23:10:43.835Z,21.50
2017-07-31T23:13:12.022Z,21.50
2017-07-31T23:15:40.170Z,21.50
2017-07-31T23:18:08.309Z,21.50
2017-07-31T23:20:36.483Z,21.50
2017-07-31T23:23:04.608Z,21.50
2017-07-31T23:25:32.791Z,21.50
2017-07-31T23:28:00.947Z,21.50
2017-07-31T23:30:29.107Z,21.50
2017-07-31T23:32:57.286Z,21.40
2017-07-31T23:35:25.432Z,21.40
2017-07-31T23:37:54.373Z,21.40
2017-07-31T23:40:22.517Z,21.40
2017-07-31T23:42:50.785Z,21.40
2017-07-31T23:45:18.932Z,21.40
2017-07-31T23:47:47.839Z,21.40
2017-07-31T23:50:16.007Z,21.40
2017-07-31T23:52:44.897Z,21.40
2017-07-31T23:55:13.933Z,21.40
2017-07-31T23:57:42.073Z,21.40
